Time;durP1;ratioP1;P1;durP2;ratioP2;P2;SDS_P1;SDS_P2;PMS_P1;PMS_P2;Temp;Humidity;BMP_temperature;BMP_pressure;BME280_temperature;BME280_humidity;BME280_pressure;Samples;Min_cycle;Max_cycle;Signal;HPM_P1;HPM_P2
2023/05/17 00:00:47;;;;;;;1.88;1.77;;;;;;;;;;5096269;28;20060;-67
2023/05/17 00:03:12;;;;;;;2.20;2.10;;;;;;;;;;5114863;28;20495;-67
2023/05/17 00:05:38;;;;;;;1.58;1.48;;;;;;;;;;5112168;28;20058;-67
2023/05/17 00:08:04;;;;;;;1.80;1.70;;;;;;;;;;5096779;28;20116;-67
2023/05/17 00:10:29;;;;;;;1.95;1.60;;;;;;;;;;5096045;28;20059;-67
2023/05/17 00:12:54;;;;;;;1.77;1.67;;;;;;;;;;5095788;28;20055;-67
2023/05/17 00:15:20;;;;;;;1.40;1.30;;;;;;;;;;5094722;28;20038;-67
2023/05/17 00:17:45;;;;;;;2.25;1.30;;;;;;;;;;5099905;28;20022;-67
2023/05/17 00:20:11;;;;;;;1.50;1.50;;;;;;;;;;5116113;28;20467;-64
2023/05/17 00:22:36;;;;;;;1.58;1.48;;;;;;;;;;5116143;28;20024;-60
2023/05/17 00:28:19;;;;;;;1.40;1.30;;;;;;;;;;5084140;28;20142;-60
2023/05/17 00:30:45;;;;;;;1.40;1.38;;;;;;;;;;5095997;28;20031;-62
2023/05/17 00:33:10;;;;;;;1.08;1.00;;;;;;;;;;5095931;28;20376;-62
2023/05/17 00:35:35;;;;;;;1.20;1.10;;;;;;;;;;5095798;28;20063;-64
2023/05/17 00:38:01;;;;;;;1.20;0.95;;;;;;;;;;5095129;28;20028;-65
2023/05/17 00:40:26;;;;;;;1.23;1.23;;;;;;;;;;5077261;28;20035;-65
2023/05/17 00:42:51;;;;;;;1.70;1.60;;;;;;;;;;5082082;28;20365;-65
2023/05/17 00:45:17;;;;;;;1.42;1.33;;;;;;;;;;5074611;28;20043;-65
2023/05/17 00:47:42;;;;;;;1.50;1.50;;;;;;;;;;5073494;28;20024;-65
2023/05/17 00:50:08;;;;;;;1.30;1.30;;;;;;;;;;5074820;28;20468;-65
2023/05/17 00:52:34;;;;;;;1.45;1.20;;;;;;;;;;5075231;28;20426;-65
2023/05/17 00:55:00;;;;;;;1.20;1.20;;;;;;;;;;5074250;28;20032;-62
2023/05/17 00:57:25;;;;;;;1.02;1.02;;;;;;;;;;5075233;28;20036;-61
2023/05/17 00:59:51;;;;;;;1.17;1.17;;;;;;;;;;5077504;28;20024;-64
2023/05/17 01:02:16;;;;;;;1.00;1.00;;;;;;;;;;5094980;28;20444;-65
2023/05/17 01:04:42;;;;;;;1.30;1.20;;;;;;;;;;5095238;28;20481;-65
2023/05/17 01:07:08;;;;;;;1.30;1.30;;;;;;;;;;5095349;28;20028;-65
2023/05/17 01:09:34;;;;;;;1.30;1.30;;;;;;;;;;5094225;28;20024;-65
2023/05/17 01:12:04;;;;;;;1.42;1.33;;;;;;;;;;5094325;28;20387;-65
2023/05/17 01:14:53;;;;;;;1.20;1.20;;;;;;;;;;5079664;28;20378;-65
2023/05/17 01:17:26;;;;;;;1.50;1.40;;;;;;;;;;5097412;28;20027;-65
2023/05/17 01:20:07;;;;;;;1.63;1.55;;;;;;;;;;5115224;28;20028;-66
2023/05/17 01:22:32;;;;;;;;;;;;;;;;;;5115653;28;20039;-66
2023/05/17 01:25:03;;;;;;;1.30;1.30;;;;;;;;;;5113897;28;19908;-66
2023/05/17 01:27:29;;;;;;;1.73;1.20;;;;;;;;;;5079726;28;20067;-64
2023/05/17 01:29:55;;;;;;;1.40;1.30;;;;;;;;;;5115464;28;20062;-66
2023/05/17 01:32:21;;;;;;;1.27;1.27;;;;;;;;;;5098983;28;20116;-65
2023/05/17 01:34:46;;;;;;;1.30;1.30;;;;;;;;;;5076456;28;20126;-65
2023/05/17 01:37:11;;;;;;;1.30;1.30;;;;;;;;;;5094420;28;20043;-66
2023/05/17 01:39:37;;;;;;;1.30;1.20;;;;;;;;;;5076531;28;20032;-66
2023/05/17 01:42:02;;;;;;;1.25;1.25;;;;;;;;;;5094709;28;20020;-66
2023/05/17 01:44:30;;;;;;;1.38;1.27;;;;;;;;;;5094433;28;20016;-66
2023/05/17 01:47:10;;;;;;;1.10;1.10;;;;;;;;;;5094705;28;20470;-66
2023/05/17 01:49:37;;;;;;;1.60;1.50;;;;;;;;;;5094831;28;20377;-66
2023/05/17 01:52:08;;;;;;;1.13;1.13;;;;;;;;;;5094167;28;20043;-67
2023/05/17 01:54:38;;;;;;;2.38;1.30;;;;;;;;;;5076418;28;20053;-67
2023/05/17 01:57:05;;;;;;;1.80;1.80;;;;;;;;;;5076192;28;20047;-64
2023/05/17 01:59:32;;;;;;;1.30;1.30;;;;;;;;;;5076139;28;20507;-63
2023/05/17 02:02:06;;;;;;;1.50;1.40;;;;;;;;;;5076448;28;20020;-63
2023/05/17 02:04:31;;;;;;;1.20;1.20;;;;;;;;;;5094470;28;20028;-63
2023/05/17 02:07:00;;;;;;;1.13;1.13;;;;;;;;;;5094863;28;20050;-63
2023/05/17 02:09:25;;;;;;;1.30;1.30;;;;;;;;;;5096328;28;20028;-62
2023/05/17 02:11:51;;;;;;;1.30;1.30;;;;;;;;;;5096224;28;20130;-63
2023/05/17 02:14:16;;;;;;;1.30;1.30;;;;;;;;;;5109452;23;20049;-64
2023/05/17 02:16:42;;;;;;;1.30;1.30;;;;;;;;;;5075633;28;20056;-67
2023/05/17 02:19:08;;;;;;;1.85;1.50;;;;;;;;;;5085582;28;20046;-67
2023/05/17 02:21:33;;;;;;;1.40;1.40;;;;;;;;;;5074808;28;20024;-67
2023/05/17 02:24:01;;;;;;;1.73;1.73;;;;;;;;;;5073373;28;20365;-67
2023/05/17 02:26:26;;;;;;;1.50;1.50;;;;;;;;;;5073548;28;20025;-60
2023/05/17 02:28:52;;;;;;;1.65;1.60;;;;;;;;;;5074002;28;20487;-63
2023/05/17 02:31:17;;;;;;;1.30;1.30;;;;;;;;;;5073913;28;20040;-60
2023/05/17 02:33:42;;;;;;;1.80;1.67;;;;;;;;;;5073699;28;20036;-61
2023/05/17 02:36:08;;;;;;;1.40;1.40;;;;;;;;;;5075869;28;20098;-62
2023/05/17 02:38:33;;;;;;;1.60;1.50;;;;;;;;;;5075838;28;20032;-61
2023/05/17 02:40:58;;;;;;;1.90;1.80;;;;;;;;;;5087585;28;20070;-61
2023/05/17 02:43:24;;;;;;;1.30;1.30;;;;;;;;;;5077518;28;20448;-61
2023/05/17 02:45:50;;;;;;;1.40;1.40;;;;;;;;;;5068338;28;20478;-61
2023/05/17 02:48:16;;;;;;;1.52;1.52;;;;;;;;;;5077705;28;20388;-61
2023/05/17 02:50:41;;;;;;;1.80;1.73;;;;;;;;;;5077752;28;20028;-65
2023/05/17 02:53:06;;;;;;;1.70;1.50;;;;;;;;;;5070616;28;20440;-65
2023/05/17 02:55:32;;;;;;;4.53;2.50;;;;;;;;;;5077604;28;20064;-66
2023/05/17 02:57:57;;;;;;;2.13;1.98;;;;;;;;;;5078963;28;20118;-66
2023/05/17 03:00:23;;;;;;;1.60;1.50;;;;;;;;;;5079619;28;20444;-66
2023/05/17 03:02:50;;;;;;;4.75;2.97;;;;;;;;;;5080038;28;20020;-65
2023/05/17 03:05:15;;;;;;;5.35;3.40;;;;;;;;;;5079417;28;20020;-65
2023/05/17 03:07:46;;;;;;;1.73;1.63;;;;;;;;;;5097341;28;20024;-65
2023/05/17 03:10:11;;;;;;;4.25;2.58;;;;;;;;;;5079889;28;20031;-67
2023/05/17 03:12:40;;;;;;;2.78;2.50;;;;;;;;;;5079503;28;20032;-67
2023/05/17 03:15:06;;;;;;;1.73;1.63;;;;;;;;;;5087646;28;20043;-67
2023/05/17 03:17:32;;;;;;;2.22;1.88;;;;;;;;;;5117789;28;20372;-66
2023/05/17 03:20:20;;;;;;;3.67;2.90;;;;;;;;;;5099222;28;20030;-66
2023/05/17 03:22:47;;;;;;;2.50;2.30;;;;;;;;;;5082073;28;20027;-62
2023/05/17 03:25:12;;;;;;;6.93;3.10;;;;;;;;;;5117291;28;20031;-62
2023/05/17 03:27:38;;;;;;;3.05;2.25;;;;;;;;;;5099289;28;20110;-63
2023/05/17 03:30:04;;;;;;;1.98;1.75;;;;;;;;;;5068946;28;20420;-62
2023/05/17 03:32:31;;;;;;;2.10;1.88;;;;;;;;;;5079388;28;20031;-66
2023/05/17 03:34:57;;;;;;;5.60;1.63;;;;;;;;;;5062158;28;20372;-66
2023/05/17 03:37:23;;;;;;;4.07;2.10;;;;;;;;;;5078803;28;20027;-64
2023/05/17 03:39:49;;;;;;;2.72;1.90;;;;;;;;;;5076483;28;20030;-65
2023/05/17 03:42:14;;;;;;;3.10;2.80;;;;;;;;;;5072161;28;20029;-65
2023/05/17 03:44:40;;;;;;;1.38;1.25;;;;;;;;;;5075840;28;20021;-65
2023/05/17 03:47:06;;;;;;;1.77;1.63;;;;;;;;;;5077418;28;20471;-64
2023/05/17 03:49:32;;;;;;;2.50;2.30;;;;;;;;;;5076911;28;20122;-64
2023/05/17 03:51:58;;;;;;;2.95;1.48;;;;;;;;;;5077672;28;20097;-64
2023/05/17 03:54:23;;;;;;;1.45;1.35;;;;;;;;;;5077011;28;20471;-64
2023/05/17 03:56:49;;;;;;;2.45;1.75;;;;;;;;;;5077065;28;20532;-63
2023/05/17 03:59:15;;;;;;;2.15;1.65;;;;;;;;;;5076908;28;20081;-64
2023/05/17 04:01:42;;;;;;;1.90;1.50;;;;;;;;;;5076811;28;20110;-64
2023/05/17 04:04:07;;;;;;;0.98;0.98;;;;;;;;;;5077050;28;20494;-65
2023/05/17 04:06:33;;;;;;;2.75;1.15;;;;;;;;;;5094555;28;20113;-65
2023/05/17 04:08:58;;;;;;;2.08;1.70;;;;;;;;;;5075505;28;20032;-65
2023/05/17 04:11:27;;;;;;;1.08;1.00;;;;;;;;;;5059750;28;20032;-65
2023/05/17 04:13:53;;;;;;;1.42;0.90;;;;;;;;;;5060383;28;20024;-65
2023/05/17 04:16:19;;;;;;;1.70;1.60;;;;;;;;;;5076919;28;20039;-65
2023/05/17 04:18:46;;;;;;;2.28;1.38;;;;;;;;;;5077768;28;20394;-64
2023/05/17 04:21:11;;;;;;;1.65;1.55;;;;;;;;;;5077274;28;20024;-66
2023/05/17 04:23:39;;;;;;;0.77;0.77;;;;;;;;;;5077734;28;20051;-67
2023/05/17 04:26:05;;;;;;;3.65;2.30;;;;;;;;;;5095859;28;20020;-67
2023/05/17 04:28:33;;;;;;;0.85;0.85;;;;;;;;;;5077831;28;20139;-67
2023/05/17 04:31:00;;;;;;;0.70;0.70;;;;;;;;;;5077878;28;20032;-63
2023/05/17 04:33:26;;;;;;;0.80;0.80;;;;;;;;;;5077531;28;20024;-67
2023/05/17 04:35:55;;;;;;;1.02;0.93;;;;;;;;;;5069189;28;20429;-64
2023/05/17 04:38:22;;;;;;;1.30;1.17;;;;;;;;;;5076421;28;20039;-66
2023/05/17 04:40:48;;;;;;;1.40;1.30;;;;;;;;;;5077618;28;20460;-66
2023/05/17 04:43:13;;;;;;;3.20;1.40;;;;;;;;;;5093208;28;20102;-65
2023/05/17 04:45:40;;;;;;;2.60;2.10;;;;;;;;;;5096659;28;20413;-65
2023/05/17 04:48:06;;;;;;;1.35;1.25;;;;;;;;;;5091566;28;20107;-65
2023/05/17 04:50:31;;;;;;;1.92;1.83;;;;;;;;;;5077298;28;20016;-65
2023/05/17 04:52:57;;;;;;;1.48;1.38;;;;;;;;;;5094883;28;20086;-65
2023/05/17 04:55:22;;;;;;;1.70;1.60;;;;;;;;;;5077035;28;20024;-64
2023/05/17 04:57:47;;;;;;;2.55;2.17;;;;;;;;;;5084179;28;20032;-63
2023/05/17 05:00:15;;;;;;;1.77;1.67;;;;;;;;;;5082284;28;20038;-61
2023/05/17 05:02:43;;;;;;;1.80;1.70;;;;;;;;;;5094603;28;20023;-61
2023/05/17 05:05:09;;;;;;;1.75;1.63;;;;;;;;;;5096753;28;20089;-61
2023/05/17 05:07:36;;;;;;;1.50;1.40;;;;;;;;;;5096697;28;20028;-61
2023/05/17 05:10:02;;;;;;;1.30;1.20;;;;;;;;;;5093450;28;20119;-61
2023/05/17 05:12:28;;;;;;;2.28;1.52;;;;;;;;;;5094344;28;20106;-61
2023/05/17 05:14:55;;;;;;;2.15;1.90;;;;;;;;;;5058733;28;20048;-61
2023/05/17 05:17:23;;;;;;;1.17;1.00;;;;;;;;;;5092665;28;20046;-61
2023/05/17 05:19:52;;;;;;;1.55;1.45;;;;;;;;;;5059378;28;20047;-61
2023/05/17 05:22:17;;;;;;;2.00;1.90;;;;;;;;;;5076020;28;20051;-61
2023/05/17 05:24:43;;;;;;;1.60;1.50;;;;;;;;;;5075935;28;20064;-61
2023/05/17 05:27:08;;;;;;;1.00;1.00;;;;;;;;;;5076184;28;20020;-61
2023/05/17 05:29:35;;;;;;;1.60;1.50;;;;;;;;;;5075692;28;20375;-61
2023/05/17 05:32:01;;;;;;;1.73;1.63;;;;;;;;;;5094357;28;20035;-60
2023/05/17 05:34:27;;;;;;;0.88;0.88;;;;;;;;;;5076065;28;20348;-60
2023/05/17 05:36:53;;;;;;;1.65;1.45;;;;;;;;;;5075539;28;20039;-60
2023/05/17 05:39:19;;;;;;;1.70;1.60;;;;;;;;;;5076263;28;20024;-60
2023/05/17 05:41:44;;;;;;;1.27;1.20;;;;;;;;;;5076637;28;20067;-60
2023/05/17 05:44:10;;;;;;;1.08;1.08;;;;;;;;;;5076616;28;20460;-61
2023/05/17 05:46:35;;;;;;;1.67;1.58;;;;;;;;;;5059772;28;20039;-61
2023/05/17 05:49:02;;;;;;;1.38;1.27;;;;;;;;;;5075528;28;20402;-61
2023/05/17 05:51:28;;;;;;;1.70;1.33;;;;;;;;;;5076073;28;20113;-61
2023/05/17 05:53:54;;;;;;;0.90;0.90;;;;;;;;;;5075850;28;20070;-61
2023/05/17 05:56:20;;;;;;;1.38;1.27;;;;;;;;;;5075969;28;20431;-61
2023/05/17 05:58:45;;;;;;;3.92;1.33;;;;;;;;;;5093895;28;20104;-61
2023/05/17 06:01:11;;;;;;;1.60;1.50;;;;;;;;;;5073966;28;20032;-61
2023/05/17 06:03:36;;;;;;;0.88;0.88;;;;;;;;;;5092126;28;20032;-61
2023/05/17 06:06:01;;;;;;;1.00;1.00;;;;;;;;;;5092102;28;20065;-61
2023/05/17 06:08:26;;;;;;;0.82;0.82;;;;;;;;;;5092138;28;20034;-61
2023/05/17 06:10:52;;;;;;;0.80;0.77;;;;;;;;;;5074430;28;20240;-61
2023/05/17 06:13:17;;;;;;;0.73;0.73;;;;;;;;;;5091578;28;20024;-61
2023/05/17 06:15:42;;;;;;;0.85;0.85;;;;;;;;;;5092398;28;20105;-61
2023/05/17 06:18:08;;;;;;;1.77;1.67;;;;;;;;;;5074450;28;20494;-61
2023/05/17 06:20:33;;;;;;;1.42;1.10;;;;;;;;;;5093723;28;20075;-61
2023/05/17 06:22:58;;;;;;;1.23;1.13;;;;;;;;;;5093834;28;20115;-61
2023/05/17 06:25:24;;;;;;;1.20;1.20;;;;;;;;;;5093705;28;20020;-61
2023/05/17 06:27:49;;;;;;;1.05;1.05;;;;;;;;;;5075728;28;20069;-61
2023/05/17 06:30:14;;;;;;;1.30;1.30;;;;;;;;;;5075597;28;20051;-61
2023/05/17 06:32:41;;;;;;;1.80;1.70;;;;;;;;;;5075572;28;20141;-61
2023/05/17 06:35:06;;;;;;;1.50;1.40;;;;;;;;;;5093716;28;20024;-61
2023/05/17 06:37:32;;;;;;;1.67;1.58;;;;;;;;;;5093764;28;20146;-62
2023/05/17 06:40:01;;;;;;;1.45;1.35;;;;;;;;;;5093496;28;20028;-61
2023/05/17 06:42:26;;;;;;;1.83;1.73;;;;;;;;;;5075838;28;20035;-61
2023/05/17 06:44:56;;;;;;;3.25;2.97;;;;;;;;;;5075378;28;20016;-63
2023/05/17 06:47:21;;;;;;;1.52;1.42;;;;;;;;;;5059294;23;20511;-63
2023/05/17 06:49:47;;;;;;;1.20;1.20;;;;;;;;;;5062934;23;20079;-63
2023/05/17 06:52:12;;;;;;;1.00;1.00;;;;;;;;;;5093383;28;20059;-64
2023/05/17 06:54:37;;;;;;;1.10;1.10;;;;;;;;;;5075338;28;20031;-64
2023/05/17 06:57:03;;;;;;;1.45;1.40;;;;;;;;;;5093388;28;20028;-64
2023/05/17 06:59:28;;;;;;;1.98;1.10;;;;;;;;;;5093900;28;20040;-64
2023/05/17 07:01:53;;;;;;;1.10;1.05;;;;;;;;;;5109288;28;20027;-64
2023/05/17 07:04:19;;;;;;;1.25;1.05;;;;;;;;;;5093480;28;20069;-64
2023/05/17 07:06:45;;;;;;;1.40;1.10;;;;;;;;;;5075349;28;20051;-64
2023/05/17 07:09:11;;;;;;;1.05;1.05;;;;;;;;;;5093313;28;20028;-64
2023/05/17 07:11:36;;;;;;;1.00;1.00;;;;;;;;;;5075316;28;20024;-64
2023/05/17 07:14:01;;;;;;;0.80;0.80;;;;;;;;;;5093278;28;20039;-64
2023/05/17 07:16:27;;;;;;;1.20;1.20;;;;;;;;;;5093296;28;20032;-64
2023/05/17 07:18:52;;;;;;;1.40;1.40;;;;;;;;;;5093201;28;20035;-64
2023/05/17 07:21:18;;;;;;;1.70;1.60;;;;;;;;;;5109081;28;20035;-64
2023/05/17 07:23:43;;;;;;;2.40;2.30;;;;;;;;;;5093966;28;20023;-64
2023/05/17 07:26:08;;;;;;;1.60;1.50;;;;;;;;;;5097026;28;20043;-64
2023/05/17 07:28:34;;;;;;;1.35;1.35;;;;;;;;;;5097050;28;20063;-64
2023/05/17 07:31:00;;;;;;;2.08;1.80;;;;;;;;;;5078744;28;20040;-64
2023/05/17 07:33:25;;;;;;;2.40;1.90;;;;;;;;;;5097017;28;20032;-64
2023/05/17 07:35:51;;;;;;;2.05;1.95;;;;;;;;;;5096830;28;20035;-64
2023/05/17 07:38:16;;;;;;;2.20;2.10;;;;;;;;;;5096671;28;20085;-64
2023/05/17 07:40:41;;;;;;;2.20;2.10;;;;;;;;;;5097016;28;20032;-64
2023/05/17 07:43:07;;;;;;;2.53;2.42;;;;;;;;;;5096695;28;20115;-64
2023/05/17 07:45:32;;;;;;;2.80;2.63;;;;;;;;;;5096639;28;20032;-64
2023/05/17 07:47:57;;;;;;;1.75;1.65;;;;;;;;;;5112363;28;20049;-64
2023/05/17 07:50:22;;;;;;;2.53;2.33;;;;;;;;;;5109398;28;20036;-64
2023/05/17 07:52:48;;;;;;;3.63;3.38;;;;;;;;;;5116933;28;20394;-64
2023/05/17 07:55:13;;;;;;;2.70;2.38;;;;;;;;;;5116893;28;20031;-64
2023/05/17 07:57:39;;;;;;;1.80;1.70;;;;;;;;;;5116881;28;20039;-64
2023/05/17 08:00:07;;;;;;;3.60;3.40;;;;;;;;;;5116724;28;20390;-64
2023/05/17 08:02:36;;;;;;;2.38;2.28;;;;;;;;;;5116688;28;20023;-64
2023/05/17 08:05:02;;;;;;;2.38;1.80;;;;;;;;;;5132520;27;20520;-64
2023/05/17 08:07:27;;;;;;;2.25;2.15;;;;;;;;;;5098484;28;20027;-64
2023/05/17 08:09:52;;;;;;;10.95;9.88;;;;;;;;;;5116673;28;20085;-64
2023/05/17 08:12:18;;;;;;;2.15;2.05;;;;;;;;;;5116499;28;20383;-64
2023/05/17 08:14:43;;;;;;;2.78;2.15;;;;;;;;;;5116547;28;20023;-64
2023/05/17 08:17:08;;;;;;;3.90;3.60;;;;;;;;;;5116419;28;20367;-64
2023/05/17 08:19:33;;;;;;;2.63;2.50;;;;;;;;;;5116250;28;20084;-64
2023/05/17 08:21:59;;;;;;;3.22;3.03;;;;;;;;;;5116371;28;20051;-64
2023/05/17 08:24:25;;;;;;;2.45;2.35;;;;;;;;;;5116280;28;20027;-64
2023/05/17 08:26:50;;;;;;;4.28;3.97;;;;;;;;;;5116266;28;20028;-64
2023/05/17 08:29:16;;;;;;;2.30;2.17;;;;;;;;;;5116327;28;20026;-64
2023/05/17 08:31:41;;;;;;;3.95;3.65;;;;;;;;;;5116157;28;20418;-64
2023/05/17 08:34:06;;;;;;;4.35;3.70;;;;;;;;;;5116166;28;20042;-64
2023/05/17 08:36:32;;;;;;;4.10;3.80;;;;;;;;;;5115046;28;20057;-64
2023/05/17 08:38:57;;;;;;;3.65;3.42;;;;;;;;;;5115906;28;20028;-64
2023/05/17 08:41:22;;;;;;;4.05;3.63;;;;;;;;;;5115913;28;20031;-64
2023/05/17 08:43:48;;;;;;;4.70;4.28;;;;;;;;;;5115965;28;20027;-64
2023/05/17 08:46:15;;;;;;;4.25;3.47;;;;;;;;;;5115914;28;20038;-64
2023/05/17 08:48:42;;;;;;;6.28;5.25;;;;;;;;;;5115900;28;20034;-64
2023/05/17 08:51:09;;;;;;;5.15;4.07;;;;;;;;;;5115535;28;20443;-64
2023/05/17 08:53:34;;;;;;;4.90;4.50;;;;;;;;;;5097537;28;20039;-64
2023/05/17 08:56:03;;;;;;;5.55;4.10;;;;;;;;;;5115702;28;20050;-64
2023/05/17 08:58:32;;;;;;;6.22;4.95;;;;;;;;;;5115544;28;20032;-64
2023/05/17 09:00:58;;;;;;;4.90;4.43;;;;;;;;;;5097309;28;20032;-64
2023/05/17 09:03:24;;;;;;;7.07;4.53;;;;;;;;;;5115467;28;20375;-64
2023/05/17 09:05:51;;;;;;;5.30;4.78;;;;;;;;;;5115481;28;20023;-64
2023/05/17 09:08:17;;;;;;;6.40;5.35;;;;;;;;;;5115360;28;20103;-64
2023/05/17 09:10:42;;;;;;;5.70;5.00;;;;;;;;;;5115483;28;20450;-64
2023/05/17 09:13:14;;;;;;;4.55;4.03;;;;;;;;;;5115407;28;20020;-64
2023/05/17 09:15:43;;;;;;;4.63;4.25;;;;;;;;;;5097117;28;20036;-64
2023/05/17 09:18:10;;;;;;;4.05;3.65;;;;;;;;;;5097094;28;20019;-64
2023/05/17 09:20:35;;;;;;;4.28;3.65;;;;;;;;;;5097046;28;20478;-64
2023/05/17 09:23:01;;;;;;;4.03;3.72;;;;;;;;;;5115110;28;20112;-64
2023/05/17 09:25:27;;;;;;;3.30;3.05;;;;;;;;;;5115200;28;20032;-64
2023/05/17 09:27:55;;;;;;;3.40;3.20;;;;;;;;;;5115213;28;20031;-64
2023/05/17 09:30:31;;;;;;;3.45;3.05;;;;;;;;;;5115014;28;20066;-64
2023/05/17 09:32:56;;;;;;;3.80;3.50;;;;;;;;;;5096658;28;20034;-64
2023/05/17 09:35:28;;;;;;;3.90;3.58;;;;;;;;;;5114992;28;20047;-64
2023/05/17 09:37:56;;;;;;;3.75;3.25;;;;;;;;;;5114929;28;20081;-64
2023/05/17 09:40:23;;;;;;;4.45;4.13;;;;;;;;;;5114824;28;20039;-64
2023/05/17 09:42:49;;;;;;;4.97;4.22;;;;;;;;;;5114849;28;20024;-64
2023/05/17 09:45:19;;;;;;;4.68;4.18;;;;;;;;;;5114844;28;20371;-64
2023/05/17 09:47:45;;;;;;;4.15;3.65;;;;;;;;;;5114668;28;20024;-64
2023/05/17 09:50:16;;;;;;;3.28;3.03;;;;;;;;;;5114472;28;20089;-64
2023/05/17 09:52:41;;;;;;;3.17;2.95;;;;;;;;;;5114766;28;20032;-64
2023/05/17 09:55:10;;;;;;;3.80;3.50;;;;;;;;;;5114497;28;20068;-64
2023/05/17 09:57:36;;;;;;;3.85;3.55;;;;;;;;;;5114456;28;20031;-64
2023/05/17 10:00:02;;;;;;;3.50;3.20;;;;;;;;;;5114806;28;20039;-64
2023/05/17 10:02:34;;;;;;;3.38;3.17;;;;;;;;;;5097271;28;20498;-64
2023/05/17 10:05:04;;;;;;;3.78;3.45;;;;;;;;;;5114513;28;20020;-64
2023/05/17 10:07:30;;;;;;;3.28;3.08;;;;;;;;;;5114473;28;20039;-64
2023/05/17 10:09:56;;;;;;;2.92;2.72;;;;;;;;;;5114309;28;20081;-64
2023/05/17 10:12:22;;;;;;;3.20;3.00;;;;;;;;;;5114282;28;20425;-64
2023/05/17 10:14:48;;;;;;;2.97;2.80;;;;;;;;;;5114272;28;20103;-64
2023/05/17 10:17:13;;;;;;;3.83;2.70;;;;;;;;;;5114214;28;20038;-64
2023/05/17 10:19:39;;;;;;;2.85;2.65;;;;;;;;;;5114100;28;20467;-64
2023/05/17 10:22:05;;;;;;;2.90;2.70;;;;;;;;;;5096129;28;20450;-64
2023/05/17 10:24:30;;;;;;;3.50;3.30;;;;;;;;;;5114139;28;20019;-64
2023/05/17 10:26:59;;;;;;;3.25;3.05;;;;;;;;;;5114245;28;20028;-64
2023/05/17 10:29:25;;;;;;;3.10;2.90;;;;;;;;;;5114152;28;20108;-64
2023/05/17 10:31:50;;;;;;;3.35;3.13;;;;;;;;;;5114126;28;20490;-64
2023/05/17 10:34:24;;;;;;;4.65;3.28;;;;;;;;;;5078980;28;20032;-64
2023/05/17 10:36:50;;;;;;;4.28;3.58;;;;;;;;;;5113999;28;20032;-61
2023/05/17 10:39:16;;;;;;;3.92;3.40;;;;;;;;;;5113771;28;20059;-61
2023/05/17 10:41:43;;;;;;;2.92;2.72;;;;;;;;;;5113894;28;20032;-61
2023/05/17 10:44:10;;;;;;;2.33;2.20;;;;;;;;;;5095690;28;20028;-61
2023/05/17 10:46:36;;;;;;;2.70;2.50;;;;;;;;;;5113936;28;20012;-61
2023/05/17 10:49:02;;;;;;;2.40;2.20;;;;;;;;;;5095590;28;20040;-61
2023/05/17 10:51:35;;;;;;;2.75;2.13;;;;;;;;;;5113764;28;20035;-61
2023/05/17 10:54:03;;;;;;;2.40;2.20;;;;;;;;;;5095655;28;20038;-61
2023/05/17 10:56:32;;;;;;;2.40;2.20;;;;;;;;;;5129615;28;20501;-61
2023/05/17 10:59:28;;;;;;;2.13;1.88;;;;;;;;;;5114609;28;20032;-61
2023/05/17 11:01:58;;;;;;;2.35;2.20;;;;;;;;;;5091024;28;20042;-61
2023/05/17 11:04:33;;;;;;;3.00;2.65;;;;;;;;;;5117911;28;20041;-61
2023/05/17 11:07:17;;;;;;;2.30;2.20;;;;;;;;;;5117831;28;20482;-60
2023/05/17 11:09:43;;;;;;;1.95;1.83;;;;;;;;;;5117805;28;20490;-60
2023/05/17 11:12:09;;;;;;;2.30;2.20;;;;;;;;;;5117666;28;20073;-60
2023/05/17 11:14:44;;;;;;;4.05;2.40;;;;;;;;;;5117614;28;20084;-62
2023/05/17 11:17:14;;;;;;;2.50;2.30;;;;;;;;;;5124726;22;20048;-60
2023/05/17 11:19:58;;;;;;;2.42;2.22;;;;;;;;;;5114845;28;20043;-60
2023/05/17 11:22:26;;;;;;;2.38;2.20;;;;;;;;;;5117804;28;20038;-60
2023/05/17 11:24:53;;;;;;;3.40;2.20;;;;;;;;;;5117421;28;20062;-60
2023/05/17 11:27:19;;;;;;;3.45;2.03;;;;;;;;;;5117392;28;20027;-59
2023/05/17 11:29:47;;;;;;;2.70;2.30;;;;;;;;;;5099219;28;20217;-60
2023/05/17 11:32:13;;;;;;;2.47;2.28;;;;;;;;;;5117330;28;20069;-60
2023/05/17 11:34:38;;;;;;;3.05;2.63;;;;;;;;;;5117239;28;20031;-60
2023/05/17 11:37:09;;;;;;;3.33;2.03;;;;;;;;;;5117190;28;20012;-60
2023/05/17 11:39:34;;;;;;;3.97;2.40;;;;;;;;;;5117071;28;20470;-60
2023/05/17 11:41:59;;;;;;;2.80;2.40;;;;;;;;;;5099051;28;20081;-59
2023/05/17 11:44:28;;;;;;;6.20;2.97;;;;;;;;;;5117513;28;20036;-60
2023/05/17 11:47:09;;;;;;;2.60;2.40;;;;;;;;;;5117142;28;20035;-60
2023/05/17 11:49:38;;;;;;;3.92;2.78;;;;;;;;;;5098624;28;20027;-60
2023/05/17 11:52:04;;;;;;;4.03;2.70;;;;;;;;;;5117105;28;20038;-60
2023/05/17 11:54:30;;;;;;;3.20;2.80;;;;;;;;;;5116965;28;20019;-60
2023/05/17 11:56:56;;;;;;;3.40;2.85;;;;;;;;;;5116833;28;20600;-60
2023/05/17 11:59:22;;;;;;;3.88;2.80;;;;;;;;;;5116845;28;20019;-60
2023/05/17 12:01:48;;;;;;;4.50;2.42;;;;;;;;;;5116719;28;20467;-60
2023/05/17 12:04:21;;;;;;;3.92;2.55;;;;;;;;;;5116763;28;20127;-60
2023/05/17 12:06:46;;;;;;;4.85;3.00;;;;;;;;;;5116664;28;20141;-60
2023/05/17 12:09:14;;;;;;;4.57;2.63;;;;;;;;;;5116577;28;20027;-59
2023/05/17 12:11:40;;;;;;;4.55;3.22;;;;;;;;;;5096918;28;20367;-59
2023/05/17 12:14:06;;;;;;;3.20;2.92;;;;;;;;;;5098407;28;20031;-60
2023/05/17 12:16:32;;;;;;;7.07;2.85;;;;;;;;;;5116807;28;20482;-59
2023/05/17 12:18:58;;;;;;;2.72;2.50;;;;;;;;;;5116216;28;20036;-59
2023/05/17 12:21:23;;;;;;;4.13;3.05;;;;;;;;;;5116349;28;20540;-59
2023/05/17 12:23:52;;;;;;;3.88;3.17;;;;;;;;;;5098216;28;20023;-59
2023/05/17 12:26:17;;;;;;;3.35;3.03;;;;;;;;;;5116466;28;20041;-59
2023/05/17 12:29:00;;;;;;;4.38;3.47;;;;;;;;;;5116410;28;20028;-59
2023/05/17 12:31:26;;;;;;;4.68;3.20;;;;;;;;;;5116183;28;20024;-59
2023/05/17 12:33:51;;;;;;;4.10;2.92;;;;;;;;;;5098226;28;20039;-60
2023/05/17 12:36:17;;;;;;;2.90;2.70;;;;;;;;;;5116093;28;20486;-59
2023/05/17 12:38:43;;;;;;;6.82;3.20;;;;;;;;;;5115937;28;20035;-59
2023/05/17 12:41:12;;;;;;;4.38;3.15;;;;;;;;;;5116112;28;20027;-60
2023/05/17 12:43:38;;;;;;;2.70;2.50;;;;;;;;;;5116028;28;20051;-59
2023/05/17 12:46:06;;;;;;;3.53;3.20;;;;;;;;;;5116056;28;20022;-59
2023/05/17 12:48:35;;;;;;;5.03;2.95;;;;;;;;;;5115802;28;20038;-59
2023/05/17 12:51:07;;;;;;;3.50;3.30;;;;;;;;;;5115884;28;20062;-59
2023/05/17 12:53:39;;;;;;;4.43;3.65;;;;;;;;;;5115908;28;20027;-59
2023/05/17 12:56:05;;;;;;;5.97;5.10;;;;;;;;;;5097634;28;20547;-59
2023/05/17 12:58:35;;;;;;;9.88;7.90;;;;;;;;;;5115581;28;20122;-59
2023/05/17 13:01:01;;;;;;;3.33;3.07;;;;;;;;;;5097488;28;20111;-59
2023/05/17 13:03:27;;;;;;;4.00;3.58;;;;;;;;;;5115559;28;20257;-60
2023/05/17 13:06:05;;;;;;;4.95;4.28;;;;;;;;;;5115492;28;20493;-59
2023/05/17 13:08:30;;;;;;;4.43;3.70;;;;;;;;;;5115587;28;20039;-60
2023/05/17 13:11:06;;;;;;;2.88;2.65;;;;;;;;;;5115546;28;20035;-60
2023/05/17 13:13:32;;;;;;;3.45;3.00;;;;;;;;;;5115237;28;20069;-59
2023/05/17 13:15:57;;;;;;;3.90;3.22;;;;;;;;;;5115973;28;20024;-59
2023/05/17 13:18:23;;;;;;;3.55;3.25;;;;;;;;;;5114626;28;20040;-59
2023/05/17 13:20:50;;;;;;;4.25;3.20;;;;;;;;;;5114803;28;20053;-59
2023/05/17 13:23:15;;;;;;;3.67;2.90;;;;;;;;;;5113818;28;20455;-59
2023/05/17 13:25:40;;;;;;;4.63;3.58;;;;;;;;;;5114371;28;20049;-59
2023/05/17 13:28:06;;;;;;;3.58;3.22;;;;;;;;;;5114938;28;20035;-59
2023/05/17 13:30:31;;;;;;;4.32;3.30;;;;;;;;;;5114748;28;20023;-60
2023/05/17 13:32:56;;;;;;;6.05;3.40;;;;;;;;;;5114802;28;20032;-59
2023/05/17 13:35:22;;;;;;;5.28;3.85;;;;;;;;;;5114474;28;20027;-59
2023/05/17 13:37:47;;;;;;;5.55;3.90;;;;;;;;;;5130468;27;20035;-59
2023/05/17 13:40:13;;;;;;;3.60;3.30;;;;;;;;;;5114107;28;20058;-59
2023/05/17 13:42:38;;;;;;;3.85;3.20;;;;;;;;;;5114477;28;20115;-60
2023/05/17 13:45:04;;;;;;;3.60;3.00;;;;;;;;;;5113921;28;20024;-59
2023/05/17 13:47:30;;;;;;;3.90;3.28;;;;;;;;;;5096087;28;20028;-59
2023/05/17 13:49:56;;;;;;;4.72;4.00;;;;;;;;;;5114430;28;20106;-59
2023/05/17 13:52:22;;;;;;;6.13;4.03;;;;;;;;;;5096268;28;20168;-59
2023/05/17 13:54:47;;;;;;;4.45;4.05;;;;;;;;;;5114360;28;20046;-60
2023/05/17 13:57:12;;;;;;;4.65;3.10;;;;;;;;;;5114266;28;20032;-59
2023/05/17 13:59:38;;;;;;;4.03;3.67;;;;;;;;;;5114179;28;20510;-59
2023/05/17 14:02:03;;;;;;;4.28;2.83;;;;;;;;;;5114563;28;20019;-59
2023/05/17 14:04:28;;;;;;;6.25;3.85;;;;;;;;;;5114714;28;20051;-59
2023/05/17 14:06:54;;;;;;;5.28;3.60;;;;;;;;;;5114321;28;20475;-60
2023/05/17 14:09:20;;;;;;;4.50;3.28;;;;;;;;;;5114528;28;20023;-60
2023/05/17 14:11:46;;;;;;;3.60;3.10;;;;;;;;;;5114508;28;20101;-60
2023/05/17 14:14:12;;;;;;;3.95;3.10;;;;;;;;;;5114923;28;20406;-60
2023/05/17 14:16:37;;;;;;;3.85;3.03;;;;;;;;;;5114917;28;20035;-60
2023/05/17 14:19:03;;;;;;;6.80;4.72;;;;;;;;;;5114340;28;20055;-59
2023/05/17 14:21:28;;;;;;;6.82;3.50;;;;;;;;;;5114091;28;20035;-59
2023/05/17 14:23:53;;;;;;;3.55;3.20;;;;;;;;;;5113556;28;20031;-59
2023/05/17 14:26:19;;;;;;;4.18;2.90;;;;;;;;;;5105794;28;20024;-60
2023/05/17 14:28:44;;;;;;;5.47;2.90;;;;;;;;;;5113369;28;20028;-60
2023/05/17 14:31:10;;;;;;;3.85;2.83;;;;;;;;;;5095925;28;20057;-59
2023/05/17 14:33:35;;;;;;;3.78;3.28;;;;;;;;;;5112870;28;20028;-59
2023/05/17 14:36:01;;;;;;;3.58;3.22;;;;;;;;;;5113696;28;20027;-59
2023/05/17 14:38:26;;;;;;;3.95;3.17;;;;;;;;;;5114176;28;20385;-59
2023/05/17 14:40:51;;;;;;;4.43;3.45;;;;;;;;;;5114082;28;20044;-60
2023/05/17 14:43:19;;;;;;;4.82;3.58;;;;;;;;;;5114320;28;20024;-59